EDW5WQ LSZH-BKPR
Flight info
| Callsign | EDW5WQ |
|---|---|
| Flight time | 1h 49m |
| Altitude | 37000 |
| Route | DEGES2R DEGES Z2 XEBIX L607 ELMEM N606 GIRIS DCT NIVAS DCT PEVAL DCT VELIT DCT RETRA DCT RINAV DCT ARBER ARBER1D |
| Aircraft | A320/M-SDE3FGHIRWY/LB1 |
Departure
| Time | 2026-04-17 10:26 |
|---|---|
| Airport | Zürich Airport (LSZH) |
Arrival
| Time | 2026-04-17 12:16 |
|---|---|
| Airport | Priština Adem Jashari International Airport (BKPR) |
| Time | Latitude | Longitude | Altitude | Speed | Heading |
|---|---|---|---|---|---|
| 2026-04-17 10:10 | 47.46044 | 8.55833 | 1397 ft | 0 kts | 6° |
| 2026-04-17 10:15 | 47.46024 | 8.55830 | 1405 ft | 4 kts | 6° |
| 2026-04-17 10:15 | 47.45997 | 8.55825 | 1406 ft | 4 kts | 6° |
| 2026-04-17 10:15 | 47.45971 | 8.55821 | 1406 ft | 4 kts | 2° |
| 2026-04-17 10:16 | 47.45947 | 8.55828 | 1403 ft | 4 kts | 306° |
| 2026-04-17 10:16 | 47.45939 | 8.55863 | 1403 ft | 2 kts | 276° |
| 2026-04-17 10:16 | 47.45939 | 8.55866 | 1402 ft | 0 kts | 276° |
| 2026-04-17 10:18 | 47.45940 | 8.55856 | 1403 ft | 4 kts | 275° |
| 2026-04-17 10:18 | 47.45942 | 8.55815 | 1404 ft | 4 kts | 275° |
| 2026-04-17 10:18 | 47.45945 | 8.55771 | 1401 ft | 4 kts | 274° |
| 2026-04-17 10:19 | 47.45947 | 8.55724 | 1398 ft | 5 kts | 274° |
| 2026-04-17 10:19 | 47.45949 | 8.55673 | 1397 ft | 5 kts | 274° |
| 2026-04-17 10:19 | 47.45955 | 8.55607 | 1397 ft | 11 kts | 279° |
| 2026-04-17 10:19 | 47.45967 | 8.55462 | 1399 ft | 15 kts | 275° |
| 2026-04-17 10:20 | 47.45978 | 8.55317 | 1403 ft | 14 kts | 277° |
| 2026-04-17 10:20 | 47.45987 | 8.55178 | 1393 ft | 13 kts | 274° |
| 2026-04-17 10:20 | 47.45995 | 8.55042 | 1397 ft | 17 kts | 275° |
| 2026-04-17 10:20 | 47.46056 | 8.54910 | 1396 ft | 16 kts | 329° |
| 2026-04-17 10:21 | 47.46165 | 8.54834 | 1395 ft | 18 kts | 336° |
| 2026-04-17 10:21 | 47.46286 | 8.54754 | 1396 ft | 21 kts | 335° |
| 2026-04-17 10:21 | 47.46430 | 8.54658 | 1396 ft | 23 kts | 335° |
| 2026-04-17 10:21 | 47.46582 | 8.54552 | 1399 ft | 25 kts | 334° |
| 2026-04-17 10:22 | 47.46743 | 8.54443 | 1403 ft | 26 kts | 337° |
| 2026-04-17 10:22 | 47.46914 | 8.54344 | 1396 ft | 25 kts | 334° |
| 2026-04-17 10:22 | 47.47064 | 8.54236 | 1401 ft | 24 kts | 336° |
| 2026-04-17 10:22 | 47.47213 | 8.54134 | 1402 ft | 24 kts | 334° |
| 2026-04-17 10:23 | 47.47373 | 8.54022 | 1404 ft | 26 kts | 334° |
| 2026-04-17 10:23 | 47.47545 | 8.53905 | 1399 ft | 27 kts | 335° |
| 2026-04-17 10:23 | 47.47610 | 8.53789 | 1401 ft | 7 kts | 274° |
| 2026-04-17 10:23 | 47.47609 | 8.53773 | 1398 ft | 0 kts | 267° |
| 2026-04-17 10:24 | 47.47608 | 8.53760 | 1400 ft | 9 kts | 263° |
| 2026-04-17 10:24 | 47.47565 | 8.53640 | 1399 ft | 9 kts | 226° |
| 2026-04-17 10:24 | 47.47543 | 8.53625 | 1402 ft | 1 kts | 165° |
| 2026-04-17 10:25 | 47.47529 | 8.53630 | 1399 ft | 7 kts | 166° |
| 2026-04-17 10:25 | 47.47493 | 8.53649 | 1401 ft | 1 kts | 156° |
| 2026-04-17 10:25 | 47.47486 | 8.53654 | 1400 ft | 2 kts | 154° |
| 2026-04-17 10:25 | 47.47446 | 8.53682 | 1404 ft | 23 kts | 154° |
| 2026-04-17 10:26 | 47.47056 | 8.53955 | 1406 ft | 95 kts | 154° |
| 2026-04-17 10:26 | 47.46277 | 8.54495 | 1404 ft | 150 kts | 155° |
| 2026-04-17 10:26 | 47.44824 | 8.55470 | 1683 ft | 185 kts | 156° |
| 2026-04-17 10:26 | 47.44016 | 8.56008 | 2139 ft | 186 kts | 154° |
| 2026-04-17 10:27 | 47.43017 | 8.57129 | 2874 ft | 185 kts | 121° |
| 2026-04-17 10:27 | 47.42626 | 8.58962 | 3420 ft | 195 kts | 90° |
| 2026-04-17 10:27 | 47.43028 | 8.60959 | 3699 ft | 217 kts | 53° |
| 2026-04-17 10:27 | 47.44103 | 8.62561 | 4385 ft | 221 kts | 43° |
| 2026-04-17 10:28 | 47.45223 | 8.64120 | 5166 ft | 223 kts | 45° |
| 2026-04-17 10:28 | 47.46131 | 8.65979 | 5864 ft | 225 kts | 69° |
| 2026-04-17 10:28 | 47.46425 | 8.68217 | 6554 ft | 228 kts | 89° |
| 2026-04-17 10:28 | 47.46451 | 8.70611 | 7109 ft | 239 kts | 89° |
| 2026-04-17 10:29 | 47.46482 | 8.73141 | 7610 ft | 254 kts | 89° |
| 2026-04-17 10:29 | 47.46516 | 8.75862 | 8126 ft | 269 kts | 89° |
| 2026-04-17 10:29 | 47.46566 | 8.78663 | 8648 ft | 282 kts | 88° |
| 2026-04-17 10:29 | 47.46640 | 8.81606 | 9243 ft | 290 kts | 91° |
| 2026-04-17 10:30 | 47.46376 | 8.84572 | 9855 ft | 294 kts | 101° |
| 2026-04-17 10:30 | 47.45999 | 8.87560 | 10428 ft | 299 kts | 99° |
| 2026-04-17 10:30 | 47.45678 | 8.90658 | 10900 ft | 312 kts | 98° |
| 2026-04-17 10:30 | 47.45374 | 8.93907 | 11343 ft | 327 kts | 97° |
| 2026-04-17 10:31 | 47.45065 | 8.97304 | 11788 ft | 340 kts | 97° |
| 2026-04-17 10:31 | 47.44740 | 9.00837 | 12265 ft | 353 kts | 97° |
| 2026-04-17 10:31 | 47.44399 | 9.04484 | 12713 ft | 365 kts | 97° |
| 2026-04-17 10:31 | 47.44042 | 9.08240 | 13183 ft | 375 kts | 97° |
| 2026-04-17 10:32 | 47.43668 | 9.12107 | 13678 ft | 382 kts | 98° |
| 2026-04-17 10:32 | 47.43286 | 9.16012 | 14188 ft | 386 kts | 98° |
| 2026-04-17 10:32 | 47.42898 | 9.19949 | 14668 ft | 389 kts | 98° |
| 2026-04-17 10:32 | 47.42510 | 9.23868 | 15178 ft | 393 kts | 98° |
| 2026-04-17 10:33 | 47.42109 | 9.27930 | 15770 ft | 397 kts | 97° |
| 2026-04-17 10:33 | 47.41708 | 9.31930 | 16327 ft | 401 kts | 98° |
| 2026-04-17 10:33 | 47.41294 | 9.36024 | 16913 ft | 405 kts | 97° |
| 2026-04-17 10:33 | 47.40878 | 9.40156 | 17487 ft | 408 kts | 97° |
| 2026-04-17 10:34 | 47.40460 | 9.44313 | 18043 ft | 412 kts | 97° |
| 2026-04-17 10:34 | 47.40040 | 9.48521 | 18599 ft | 416 kts | 97° |
| 2026-04-17 10:34 | 47.39617 | 9.52765 | 19095 ft | 420 kts | 97° |
| 2026-04-17 10:34 | 47.39187 | 9.57045 | 19593 ft | 423 kts | 97° |
| 2026-04-17 10:35 | 47.38748 | 9.61359 | 20071 ft | 426 kts | 97° |
| 2026-04-17 10:35 | 47.38303 | 9.65697 | 20518 ft | 430 kts | 97° |
| 2026-04-17 10:35 | 47.37854 | 9.70072 | 20989 ft | 433 kts | 97° |
| 2026-04-17 10:35 | 47.37400 | 9.74483 | 21450 ft | 436 kts | 97° |
| 2026-04-17 10:36 | 47.36942 | 9.78900 | 21871 ft | 439 kts | 97° |
| 2026-04-17 10:36 | 47.36474 | 9.83384 | 22300 ft | 442 kts | 97° |
| 2026-04-17 10:36 | 47.36003 | 9.87874 | 22729 ft | 445 kts | 97° |
| 2026-04-17 10:36 | 47.35535 | 9.92334 | 23130 ft | 447 kts | 97° |
| 2026-04-17 10:37 | 47.35058 | 9.96887 | 23524 ft | 450 kts | 97° |
| 2026-04-17 10:37 | 47.34578 | 10.01461 | 23884 ft | 453 kts | 97° |
| 2026-04-17 10:37 | 47.34095 | 10.06062 | 24218 ft | 456 kts | 97° |
| 2026-04-17 10:37 | 47.33605 | 10.10689 | 24538 ft | 458 kts | 97° |
| 2026-04-17 10:38 | 47.33107 | 10.15337 | 24869 ft | 460 kts | 97° |
| 2026-04-17 10:38 | 47.32775 | 10.18428 | 25073 ft | 462 kts | 97° |
| 2026-04-17 10:38 | 47.32481 | 10.21181 | 25288 ft | 462 kts | 97° |
| 2026-04-17 10:38 | 47.31977 | 10.25884 | 25594 ft | 465 kts | 97° |
| 2026-04-17 10:39 | 47.31469 | 10.30593 | 25882 ft | 467 kts | 98° |
| 2026-04-17 10:39 | 47.30953 | 10.35333 | 26173 ft | 469 kts | 98° |
| 2026-04-17 10:39 | 47.30431 | 10.40090 | 26453 ft | 471 kts | 98° |
| 2026-04-17 10:39 | 47.29877 | 10.44853 | 26718 ft | 473 kts | 102° |
| 2026-04-17 10:40 | 47.28898 | 10.49482 | 26985 ft | 476 kts | 112° |
| 2026-04-17 10:40 | 47.27403 | 10.53767 | 27223 ft | 479 kts | 122° |
| 2026-04-17 10:40 | 47.25387 | 10.57687 | 27478 ft | 480 kts | 133° |
| 2026-04-17 10:40 | 47.22952 | 10.61037 | 27722 ft | 481 kts | 143° |
| 2026-04-17 10:41 | 47.20154 | 10.63733 | 27927 ft | 481 kts | 153° |
| 2026-04-17 10:41 | 47.17188 | 10.65993 | 28185 ft | 481 kts | 157° |
| 2026-04-17 10:41 | 47.14075 | 10.67803 | 28474 ft | 480 kts | 161° |
| 2026-04-17 10:41 | 47.10943 | 10.69509 | 28799 ft | 479 kts | 161° |
| 2026-04-17 10:42 | 47.07828 | 10.71214 | 29148 ft | 478 kts | 161° |
| 2026-04-17 10:42 | 47.04713 | 10.72924 | 29501 ft | 477 kts | 161° |
| 2026-04-17 10:42 | 47.01608 | 10.74631 | 29826 ft | 476 kts | 161° |
| 2026-04-17 10:42 | 46.98516 | 10.76356 | 30197 ft | 475 kts | 161° |
| 2026-04-17 10:43 | 46.95434 | 10.78098 | 30524 ft | 474 kts | 161° |
| 2026-04-17 10:43 | 46.92362 | 10.79845 | 30814 ft | 473 kts | 161° |
| 2026-04-17 10:43 | 46.89302 | 10.81588 | 31082 ft | 472 kts | 161° |
| 2026-04-17 10:43 | 46.86239 | 10.83324 | 31371 ft | 471 kts | 161° |
| 2026-04-17 10:44 | 46.83187 | 10.85048 | 31655 ft | 470 kts | 161° |
| 2026-04-17 10:44 | 46.80178 | 10.86897 | 31955 ft | 470 kts | 155° |
| 2026-04-17 10:44 | 46.77368 | 10.89341 | 32242 ft | 472 kts | 146° |
| 2026-04-17 10:44 | 46.74837 | 10.92386 | 32519 ft | 473 kts | 137° |
| 2026-04-17 10:45 | 46.72603 | 10.95914 | 32807 ft | 473 kts | 133° |
| 2026-04-17 10:45 | 46.70422 | 10.99508 | 33093 ft | 472 kts | 133° |
| 2026-04-17 10:45 | 46.68245 | 11.03084 | 33337 ft | 471 kts | 133° |
| 2026-04-17 10:45 | 46.66063 | 11.06652 | 33554 ft | 471 kts | 133° |
| 2026-04-17 10:46 | 46.63882 | 11.10202 | 33854 ft | 470 kts | 133° |
| 2026-04-17 10:46 | 46.61731 | 11.13698 | 34106 ft | 469 kts | 133° |
| 2026-04-17 10:46 | 46.59531 | 11.17279 | 34344 ft | 468 kts | 133° |
| 2026-04-17 10:46 | 46.57365 | 11.20808 | 34577 ft | 468 kts | 133° |
| 2026-04-17 10:47 | 46.55243 | 11.24263 | 34810 ft | 467 kts | 133° |
| 2026-04-17 10:47 | 46.53081 | 11.27776 | 35061 ft | 466 kts | 133° |
| 2026-04-17 10:47 | 46.50918 | 11.31282 | 35289 ft | 466 kts | 133° |
| 2026-04-17 10:47 | 46.48754 | 11.34781 | 35505 ft | 465 kts | 133° |
| 2026-04-17 10:48 | 46.46592 | 11.38272 | 35723 ft | 465 kts | 134° |
| 2026-04-17 10:48 | 46.44429 | 11.41755 | 35897 ft | 465 kts | 134° |
| 2026-04-17 10:48 | 46.42268 | 11.45232 | 36084 ft | 464 kts | 134° |
| 2026-04-17 10:48 | 46.40110 | 11.48708 | 36278 ft | 464 kts | 134° |
| 2026-04-17 10:49 | 46.37949 | 11.52182 | 36468 ft | 463 kts | 134° |
| 2026-04-17 10:49 | 46.35793 | 11.55644 | 36666 ft | 463 kts | 134° |
| 2026-04-17 10:49 | 46.33636 | 11.59101 | 36843 ft | 462 kts | 134° |
| 2026-04-17 10:49 | 46.31481 | 11.62548 | 37006 ft | 462 kts | 134° |
| 2026-04-17 10:50 | 46.29328 | 11.65986 | 37162 ft | 462 kts | 134° |
| 2026-04-17 10:50 | 46.24998 | 11.72896 | 37197 ft | 464 kts | 134° |
| 2026-04-17 10:51 | 46.20658 | 11.79816 | 37196 ft | 464 kts | 134° |
| 2026-04-17 10:51 | 46.16322 | 11.86718 | 37196 ft | 464 kts | 134° |
| 2026-04-17 10:52 | 46.11976 | 11.93590 | 37191 ft | 464 kts | 134° |
| 2026-04-17 10:52 | 46.07629 | 12.00449 | 37190 ft | 463 kts | 134° |
| 2026-04-17 10:53 | 46.03276 | 12.07303 | 37189 ft | 463 kts | 134° |
| 2026-04-17 10:53 | 45.98931 | 12.14137 | 37184 ft | 463 kts | 134° |
| 2026-04-17 10:54 | 45.94587 | 12.20955 | 37176 ft | 463 kts | 134° |
| 2026-04-17 10:54 | 45.90264 | 12.27722 | 37180 ft | 463 kts | 134° |
| 2026-04-17 10:55 | 45.85987 | 12.34631 | 37177 ft | 463 kts | 132° |
| 2026-04-17 10:55 | 45.81819 | 12.41671 | 37180 ft | 463 kts | 131° |
| 2026-04-17 10:56 | 45.77656 | 12.48694 | 37184 ft | 462 kts | 131° |
| 2026-04-17 10:56 | 45.73454 | 12.55672 | 37183 ft | 462 kts | 132° |
| 2026-04-17 10:57 | 45.69242 | 12.62604 | 37190 ft | 461 kts | 132° |
| 2026-04-17 10:57 | 45.65027 | 12.69524 | 37190 ft | 461 kts | 132° |
| 2026-04-17 10:58 | 45.60823 | 12.76433 | 37188 ft | 460 kts | 132° |
| 2026-04-17 10:58 | 45.56652 | 12.83281 | 37190 ft | 460 kts | 131° |
| 2026-04-17 10:59 | 45.52456 | 12.90154 | 37185 ft | 459 kts | 131° |
| 2026-04-17 10:59 | 45.48256 | 12.96999 | 37190 ft | 458 kts | 131° |
| 2026-04-17 11:00 | 45.44057 | 13.03823 | 37196 ft | 457 kts | 131° |
| 2026-04-17 11:00 | 45.39872 | 13.10620 | 37167 ft | 455 kts | 131° |
| 2026-04-17 11:01 | 45.35693 | 13.17383 | 37161 ft | 455 kts | 131° |
| 2026-04-17 11:01 | 45.31530 | 13.24153 | 37159 ft | 454 kts | 128° |
| 2026-04-17 11:02 | 45.28592 | 13.30332 | 37153 ft | 454 kts | 122° |
| 2026-04-17 11:02 | 45.24624 | 13.39101 | 37150 ft | 454 kts | 122° |
| 2026-04-17 11:03 | 45.21188 | 13.46640 | 37163 ft | 454 kts | 122° |
| 2026-04-17 11:03 | 45.17750 | 13.54151 | 37166 ft | 454 kts | 122° |
| 2026-04-17 11:04 | 45.14890 | 13.60386 | 37175 ft | 454 kts | 122° |
| 2026-04-17 11:04 | 45.10863 | 13.69153 | 37172 ft | 454 kts | 122° |
| 2026-04-17 11:05 | 45.07417 | 13.76642 | 37154 ft | 454 kts | 122° |
| 2026-04-17 11:05 | 45.03989 | 13.84068 | 37153 ft | 453 kts | 122° |
| 2026-04-17 11:06 | 45.00532 | 13.91525 | 37151 ft | 453 kts | 122° |
| 2026-04-17 11:06 | 44.97070 | 13.98970 | 37158 ft | 453 kts | 122° |
| 2026-04-17 11:07 | 44.93608 | 14.06405 | 37156 ft | 453 kts | 122° |
| 2026-04-17 11:07 | 44.90147 | 14.13830 | 37164 ft | 452 kts | 122° |
| 2026-04-17 11:08 | 44.86679 | 14.21225 | 37165 ft | 452 kts | 122° |
| 2026-04-17 11:08 | 44.83206 | 14.28610 | 37165 ft | 451 kts | 122° |
| 2026-04-17 11:09 | 44.79741 | 14.35983 | 37148 ft | 451 kts | 122° |
| 2026-04-17 11:09 | 44.76280 | 14.43341 | 37146 ft | 450 kts | 122° |
| 2026-04-17 11:10 | 44.71076 | 14.54338 | 37136 ft | 450 kts | 122° |
| 2026-04-17 11:10 | 44.67608 | 14.61645 | 37142 ft | 449 kts | 122° |
| 2026-04-17 11:11 | 44.64134 | 14.68940 | 37146 ft | 449 kts | 122° |
| 2026-04-17 11:11 | 44.60664 | 14.76219 | 37145 ft | 449 kts | 122° |
| 2026-04-17 11:12 | 44.57183 | 14.83488 | 37148 ft | 448 kts | 122° |
| 2026-04-17 11:12 | 44.53720 | 14.90698 | 37150 ft | 448 kts | 122° |
| 2026-04-17 11:13 | 44.50243 | 14.97939 | 37147 ft | 448 kts | 122° |
| 2026-04-17 11:13 | 44.46762 | 15.05175 | 37144 ft | 448 kts | 122° |
| 2026-04-17 11:14 | 44.43278 | 15.12392 | 37147 ft | 448 kts | 121° |
| 2026-04-17 11:14 | 44.39785 | 15.19603 | 37135 ft | 447 kts | 122° |
| 2026-04-17 11:15 | 44.36291 | 15.26795 | 37125 ft | 447 kts | 122° |
| 2026-04-17 11:15 | 44.32791 | 15.33984 | 37118 ft | 447 kts | 122° |
| 2026-04-17 11:16 | 44.29289 | 15.41156 | 37110 ft | 447 kts | 122° |
| 2026-04-17 11:16 | 44.25783 | 15.48317 | 37112 ft | 447 kts | 122° |
| 2026-04-17 11:17 | 44.22866 | 15.54271 | 37108 ft | 447 kts | 122° |
| 2026-04-17 11:17 | 44.19351 | 15.61430 | 37112 ft | 447 kts | 122° |
| 2026-04-17 11:18 | 44.15264 | 15.69720 | 37112 ft | 447 kts | 122° |
| 2026-04-17 11:18 | 44.12330 | 15.75660 | 37110 ft | 447 kts | 122° |
| 2026-04-17 11:19 | 44.08776 | 15.82828 | 37106 ft | 447 kts | 122° |
| 2026-04-17 11:19 | 44.05266 | 15.89907 | 37103 ft | 448 kts | 122° |
| 2026-04-17 11:20 | 44.01730 | 15.97029 | 37100 ft | 448 kts | 122° |
| 2026-04-17 11:20 | 43.98178 | 16.04145 | 37094 ft | 448 kts | 122° |
| 2026-04-17 11:21 | 43.94624 | 16.11254 | 37090 ft | 449 kts | 122° |
| 2026-04-17 11:21 | 43.91059 | 16.18364 | 37086 ft | 449 kts | 123° |
| 2026-04-17 11:22 | 43.87487 | 16.25478 | 37083 ft | 450 kts | 123° |
| 2026-04-17 11:22 | 43.83905 | 16.32596 | 37078 ft | 450 kts | 123° |
| 2026-04-17 11:23 | 43.80320 | 16.39705 | 37075 ft | 451 kts | 123° |
| 2026-04-17 11:23 | 43.76749 | 16.46779 | 37073 ft | 451 kts | 123° |
| 2026-04-17 11:24 | 43.73134 | 16.53901 | 37070 ft | 452 kts | 123° |
| 2026-04-17 11:24 | 43.69514 | 16.61009 | 37072 ft | 452 kts | 123° |
| 2026-04-17 11:25 | 43.65892 | 16.68117 | 37073 ft | 453 kts | 123° |
| 2026-04-17 11:25 | 43.62263 | 16.75224 | 37074 ft | 453 kts | 123° |
| 2026-04-17 11:26 | 43.58616 | 16.82340 | 37070 ft | 454 kts | 123° |
| 2026-04-17 11:26 | 43.54965 | 16.89448 | 37069 ft | 455 kts | 123° |
| 2026-04-17 11:27 | 43.51323 | 16.96523 | 37064 ft | 456 kts | 124° |
| 2026-04-17 11:27 | 43.47649 | 17.03648 | 37064 ft | 456 kts | 124° |
| 2026-04-17 11:28 | 43.43966 | 17.10772 | 37068 ft | 456 kts | 124° |
| 2026-04-17 11:28 | 43.40299 | 17.17842 | 37071 ft | 456 kts | 124° |
| 2026-04-17 11:29 | 43.36603 | 17.24944 | 37065 ft | 457 kts | 124° |
| 2026-04-17 11:29 | 43.32898 | 17.32033 | 37066 ft | 457 kts | 124° |
| 2026-04-17 11:30 | 43.29165 | 17.39101 | 37060 ft | 457 kts | 124° |
| 2026-04-17 11:30 | 43.25421 | 17.46164 | 37054 ft | 458 kts | 124° |
| 2026-04-17 11:31 | 43.21672 | 17.53217 | 37047 ft | 458 kts | 124° |
| 2026-04-17 11:31 | 43.17913 | 17.60268 | 36939 ft | 457 kts | 125° |
| 2026-04-17 11:32 | 43.16043 | 17.63774 | 36233 ft | 457 kts | 125° |
| 2026-04-17 11:32 | 43.14160 | 17.67300 | 35465 ft | 459 kts | 125° |
| 2026-04-17 11:32 | 43.12281 | 17.70815 | 35141 ft | 459 kts | 125° |
| 2026-04-17 11:32 | 43.10411 | 17.74310 | 34990 ft | 460 kts | 125° |
| 2026-04-17 11:33 | 43.06589 | 17.81435 | 35032 ft | 462 kts | 125° |
| 2026-04-17 11:33 | 43.02800 | 17.88471 | 35032 ft | 462 kts | 125° |
| 2026-04-17 11:34 | 42.98989 | 17.95551 | 35027 ft | 462 kts | 125° |
| 2026-04-17 11:34 | 42.95175 | 18.02627 | 35028 ft | 462 kts | 125° |
| 2026-04-17 11:35 | 42.91357 | 18.09689 | 35025 ft | 463 kts | 125° |
| 2026-04-17 11:35 | 42.87527 | 18.16741 | 35016 ft | 463 kts | 126° |
| 2026-04-17 11:36 | 42.83692 | 18.23783 | 35020 ft | 462 kts | 126° |
| 2026-04-17 11:36 | 42.79855 | 18.30815 | 35015 ft | 462 kts | 126° |
| 2026-04-17 11:37 | 42.76043 | 18.37797 | 35009 ft | 462 kts | 126° |
| 2026-04-17 11:37 | 42.72205 | 18.44814 | 35010 ft | 463 kts | 125° |
| 2026-04-17 11:38 | 42.68347 | 18.51830 | 34985 ft | 464 kts | 125° |
| 2026-04-17 11:38 | 42.64469 | 18.58867 | 34981 ft | 465 kts | 125° |
| 2026-04-17 11:39 | 42.60583 | 18.65904 | 34965 ft | 466 kts | 126° |
| 2026-04-17 11:39 | 42.56685 | 18.72954 | 34961 ft | 467 kts | 126° |
| 2026-04-17 11:40 | 42.52784 | 18.79999 | 34963 ft | 467 kts | 126° |
| 2026-04-17 11:40 | 42.48874 | 18.87038 | 34959 ft | 467 kts | 126° |
| 2026-04-17 11:41 | 42.44959 | 18.94065 | 34965 ft | 467 kts | 126° |
| 2026-04-17 11:41 | 42.41042 | 19.01090 | 34969 ft | 468 kts | 127° |
| 2026-04-17 11:42 | 42.37143 | 19.08070 | 34968 ft | 468 kts | 127° |
| 2026-04-17 11:42 | 42.33211 | 19.15073 | 34973 ft | 468 kts | 127° |
| 2026-04-17 11:43 | 42.29274 | 19.22070 | 34973 ft | 468 kts | 127° |
| 2026-04-17 11:43 | 42.25338 | 19.29048 | 34975 ft | 467 kts | 127° |
| 2026-04-17 11:44 | 42.21403 | 19.36039 | 34976 ft | 467 kts | 126° |
| 2026-04-17 11:44 | 42.17583 | 19.43131 | 34974 ft | 467 kts | 125° |
| 2026-04-17 11:45 | 42.13817 | 19.50252 | 34981 ft | 467 kts | 125° |
| 2026-04-17 11:45 | 42.10027 | 19.57349 | 34978 ft | 467 kts | 126° |
| 2026-04-17 11:46 | 42.06198 | 19.64415 | 34977 ft | 467 kts | 126° |
| 2026-04-17 11:46 | 42.02473 | 19.71575 | 34965 ft | 467 kts | 118° |
| 2026-04-17 11:47 | 42.01154 | 19.75559 | 34960 ft | 466 kts | 107° |
| 2026-04-17 11:47 | 42.00387 | 19.79784 | 34955 ft | 465 kts | 97° |
| 2026-04-17 11:47 | 42.00436 | 19.88362 | 34955 ft | 462 kts | 77° |
| 2026-04-17 11:48 | 42.02096 | 19.96698 | 34918 ft | 463 kts | 72° |
| 2026-04-17 11:48 | 42.02974 | 20.00876 | 34613 ft | 465 kts | 72° |
| 2026-04-17 11:48 | 42.03850 | 20.05060 | 34204 ft | 466 kts | 72° |
| 2026-04-17 11:49 | 42.04724 | 20.09270 | 33774 ft | 468 kts | 73° |
| 2026-04-17 11:49 | 42.05598 | 20.13499 | 33303 ft | 470 kts | 73° |
| 2026-04-17 11:49 | 42.06474 | 20.17743 | 32853 ft | 472 kts | 73° |
| 2026-04-17 11:49 | 42.07351 | 20.22002 | 32412 ft | 473 kts | 73° |
| 2026-04-17 11:50 | 42.08228 | 20.26279 | 31970 ft | 475 kts | 73° |
| 2026-04-17 11:50 | 42.09108 | 20.30570 | 31542 ft | 476 kts | 73° |
| 2026-04-17 11:50 | 42.09993 | 20.34881 | 31113 ft | 478 kts | 73° |
| 2026-04-17 11:50 | 42.10860 | 20.39116 | 30687 ft | 471 kts | 73° |
| 2026-04-17 11:51 | 42.11724 | 20.43345 | 30200 ft | 464 kts | 73° |
| 2026-04-17 11:51 | 42.12656 | 20.47521 | 29646 ft | 457 kts | 68° |
| 2026-04-17 11:51 | 42.13914 | 20.51358 | 29101 ft | 450 kts | 60° |
| 2026-04-17 11:51 | 42.15516 | 20.54938 | 28552 ft | 443 kts | 55° |
| 2026-04-17 11:52 | 42.17185 | 20.58411 | 28018 ft | 439 kts | 55° |
| 2026-04-17 11:52 | 42.18834 | 20.61853 | 27493 ft | 437 kts | 55° |
| 2026-04-17 11:52 | 42.20475 | 20.65286 | 26925 ft | 434 kts | 55° |
| 2026-04-17 11:52 | 42.22103 | 20.68696 | 26368 ft | 430 kts | 56° |
| 2026-04-17 11:53 | 42.23717 | 20.72080 | 25800 ft | 428 kts | 55° |
| 2026-04-17 11:53 | 42.25326 | 20.75457 | 25193 ft | 426 kts | 56° |
| 2026-04-17 11:53 | 42.26923 | 20.78811 | 24601 ft | 425 kts | 55° |
| 2026-04-17 11:53 | 42.28516 | 20.82161 | 24015 ft | 422 kts | 56° |
| 2026-04-17 11:54 | 42.30078 | 20.85452 | 23393 ft | 409 kts | 56° |
| 2026-04-17 11:54 | 42.31593 | 20.88649 | 22728 ft | 403 kts | 55° |
| 2026-04-17 11:54 | 42.33106 | 20.91839 | 22072 ft | 404 kts | 56° |
| 2026-04-17 11:54 | 42.34626 | 20.95048 | 21421 ft | 406 kts | 56° |
| 2026-04-17 11:55 | 42.36144 | 20.98260 | 20779 ft | 402 kts | 55° |
| 2026-04-17 11:55 | 42.37617 | 21.01381 | 20166 ft | 396 kts | 55° |
| 2026-04-17 11:55 | 42.39110 | 21.04540 | 19553 ft | 390 kts | 56° |
| 2026-04-17 11:55 | 42.40542 | 21.07573 | 18963 ft | 385 kts | 55° |
| 2026-04-17 11:56 | 42.41966 | 21.10596 | 18479 ft | 376 kts | 56° |
| 2026-04-17 11:56 | 42.43350 | 21.13547 | 17962 ft | 368 kts | 55° |
| 2026-04-17 11:56 | 42.44710 | 21.16449 | 17430 ft | 360 kts | 55° |
| 2026-04-17 11:56 | 42.46035 | 21.19296 | 16908 ft | 354 kts | 58° |
| 2026-04-17 11:57 | 42.46855 | 21.22391 | 16398 ft | 351 kts | 83° |
| 2026-04-17 11:57 | 42.46586 | 21.25634 | 15892 ft | 348 kts | 110° |
| 2026-04-17 11:57 | 42.45286 | 21.28311 | 15395 ft | 339 kts | 137° |
| 2026-04-17 11:57 | 42.43466 | 21.30264 | 14903 ft | 329 kts | 142° |
| 2026-04-17 11:58 | 42.41654 | 21.32100 | 14427 ft | 321 kts | 143° |
| 2026-04-17 11:58 | 42.39904 | 21.33859 | 13956 ft | 314 kts | 143° |
| 2026-04-17 11:58 | 42.38142 | 21.35550 | 13437 ft | 308 kts | 150° |
| 2026-04-17 11:58 | 42.36094 | 21.36313 | 12895 ft | 302 kts | 180° |
| 2026-04-17 11:59 | 42.34111 | 21.35669 | 12388 ft | 301 kts | 209° |
| 2026-04-17 11:59 | 42.32543 | 21.33794 | 11831 ft | 307 kts | 232° |
| 2026-04-17 11:59 | 42.31228 | 21.31474 | 11250 ft | 315 kts | 233° |
| 2026-04-17 11:59 | 42.29923 | 21.29062 | 10732 ft | 319 kts | 239° |
| 2026-04-17 12:00 | 42.29201 | 21.26263 | 10246 ft | 317 kts | 267° |
| 2026-04-17 12:00 | 42.29491 | 21.23353 | 9745 ft | 313 kts | 295° |
| 2026-04-17 12:00 | 42.30654 | 21.20917 | 9228 ft | 309 kts | 313° |
| 2026-04-17 12:00 | 42.32068 | 21.18725 | 8703 ft | 309 kts | 315° |
| 2026-04-17 12:01 | 42.33497 | 21.16554 | 8223 ft | 308 kts | 315° |
| 2026-04-17 12:01 | 42.34922 | 21.14398 | 7829 ft | 306 kts | 315° |
| 2026-04-17 12:01 | 42.36312 | 21.12289 | 7429 ft | 293 kts | 315° |
| 2026-04-17 12:01 | 42.37621 | 21.10296 | 7038 ft | 281 kts | 315° |
| 2026-04-17 12:02 | 42.38892 | 21.08353 | 6649 ft | 270 kts | 315° |
| 2026-04-17 12:02 | 42.40137 | 21.06525 | 6259 ft | 258 kts | 323° |
| 2026-04-17 12:02 | 42.41645 | 21.05341 | 5747 ft | 247 kts | 346° |
| 2026-04-17 12:02 | 42.43317 | 21.04992 | 5258 ft | 242 kts | 359° |
| 2026-04-17 12:03 | 42.44983 | 21.04831 | 4770 ft | 239 kts | 359° |
| 2026-04-17 12:03 | 42.46628 | 21.04670 | 4259 ft | 235 kts | 358° |
| 2026-04-17 12:03 | 42.48257 | 21.04505 | 3816 ft | 233 kts | 359° |
| 2026-04-17 12:03 | 42.49853 | 21.04343 | 3344 ft | 227 kts | 359° |
| 2026-04-17 12:04 | 42.51404 | 21.04185 | 2895 ft | 220 kts | 358° |
| 2026-04-17 12:04 | 42.52888 | 21.04035 | 2533 ft | 207 kts | 357° |
| 2026-04-17 12:04 | 42.54267 | 21.03894 | 2209 ft | 190 kts | 356° |
| 2026-04-17 12:04 | 42.55533 | 21.03765 | 1921 ft | 171 kts | 356° |
| 2026-04-17 12:05 | 42.56644 | 21.03657 | 1812 ft | 152 kts | 356° |
| 2026-04-17 12:05 | 42.57704 | 21.03543 | 1994 ft | 160 kts | 355° |
| 2026-04-17 12:05 | 42.58864 | 21.03442 | 2645 ft | 169 kts | 359° |
| 2026-04-17 12:05 | 42.60019 | 21.03290 | 3295 ft | 176 kts | 356° |
| 2026-04-17 12:06 | 42.61338 | 21.03089 | 3465 ft | 206 kts | 1° |
| 2026-04-17 12:06 | 42.62707 | 21.03641 | 3500 ft | 209 kts | 35° |
| 2026-04-17 12:06 | 42.63561 | 21.05235 | 3940 ft | 215 kts | 72° |
| 2026-04-17 12:06 | 42.63591 | 21.07287 | 4701 ft | 226 kts | 100° |
| 2026-04-17 12:07 | 42.62860 | 21.09176 | 4926 ft | 232 kts | 131° |
| 2026-04-17 12:07 | 42.61612 | 21.10584 | 5005 ft | 234 kts | 138° |
| 2026-04-17 12:07 | 42.60302 | 21.11973 | 5008 ft | 246 kts | 138° |
| 2026-04-17 12:07 | 42.58929 | 21.13426 | 5009 ft | 252 kts | 138° |
| 2026-04-17 12:08 | 42.57563 | 21.14870 | 5003 ft | 252 kts | 139° |
| 2026-04-17 12:08 | 42.56173 | 21.16340 | 5008 ft | 253 kts | 138° |
| 2026-04-17 12:08 | 42.54788 | 21.17806 | 5008 ft | 253 kts | 138° |
| 2026-04-17 12:08 | 42.53386 | 21.19251 | 5004 ft | 254 kts | 145° |
| 2026-04-17 12:09 | 42.51781 | 21.20292 | 5005 ft | 258 kts | 154° |
| 2026-04-17 12:09 | 42.50109 | 21.21183 | 5005 ft | 258 kts | 155° |
| 2026-04-17 12:09 | 42.48436 | 21.22064 | 5005 ft | 258 kts | 156° |
| 2026-04-17 12:09 | 42.46731 | 21.22811 | 4985 ft | 260 kts | 171° |
| 2026-04-17 12:10 | 42.44946 | 21.22523 | 4997 ft | 263 kts | 201° |
| 2026-04-17 12:10 | 42.43443 | 21.21179 | 5004 ft | 264 kts | 223° |
| 2026-04-17 12:10 | 42.42090 | 21.19459 | 4993 ft | 265 kts | 225° |
| 2026-04-17 12:10 | 42.40793 | 21.17724 | 4990 ft | 264 kts | 225° |
| 2026-04-17 12:11 | 42.39495 | 21.15959 | 4996 ft | 265 kts | 228° |
| 2026-04-17 12:11 | 42.38530 | 21.13862 | 4998 ft | 263 kts | 253° |
| 2026-04-17 12:11 | 42.38293 | 21.11463 | 4995 ft | 253 kts | 279° |
| 2026-04-17 12:12 | 42.39744 | 21.07368 | 4993 ft | 241 kts | 313° |
| 2026-04-17 12:12 | 42.40966 | 21.05886 | 4996 ft | 231 kts | 335° |
| 2026-04-17 12:12 | 42.42417 | 21.05128 | 4848 ft | 221 kts | 354° |
| 2026-04-17 12:12 | 42.43944 | 21.04931 | 4534 ft | 221 kts | 360° |
| 2026-04-17 12:13 | 42.45456 | 21.04786 | 4199 ft | 214 kts | 359° |
| 2026-04-17 12:13 | 42.46921 | 21.04640 | 3869 ft | 208 kts | 359° |
| 2026-04-17 12:13 | 42.48365 | 21.04495 | 3563 ft | 207 kts | 359° |
| 2026-04-17 12:13 | 42.49772 | 21.04351 | 3258 ft | 196 kts | 359° |
| 2026-04-17 12:14 | 42.51077 | 21.04218 | 2946 ft | 185 kts | 358° |
| 2026-04-17 12:14 | 42.52325 | 21.04091 | 2641 ft | 173 kts | 358° |
| 2026-04-17 12:14 | 42.53473 | 21.03984 | 2413 ft | 154 kts | 357° |
| 2026-04-17 12:14 | 42.54483 | 21.03872 | 2199 ft | 142 kts | 356° |
| 2026-04-17 12:15 | 42.55431 | 21.03770 | 1989 ft | 132 kts | 356° |
| 2026-04-17 12:15 | 42.56341 | 21.03683 | 1859 ft | 130 kts | 356° |
| 2026-04-17 12:15 | 42.57222 | 21.03592 | 1804 ft | 116 kts | 356° |
| 2026-04-17 12:15 | 42.57642 | 21.03551 | 1795 ft | 67 kts | 356° |
| 2026-04-17 12:16 | 42.57873 | 21.03469 | 1795 ft | 23 kts | 321° |
| 2026-04-17 12:16 | 42.57953 | 21.03385 | 1797 ft | 9 kts | 322° |
| 2026-04-17 12:16 | 42.57983 | 21.03336 | 1797 ft | 5 kts | 290° |
| 2026-04-17 12:16 | 42.57983 | 21.03296 | 1799 ft | 3 kts | 256° |
| 2026-04-17 12:17 | 42.57963 | 21.03273 | 1798 ft | 4 kts | 197° |
| 2026-04-17 12:17 | 42.57929 | 21.03277 | 1798 ft | 8 kts | 175° |
| 2026-04-17 12:17 | 42.57875 | 21.03283 | 1796 ft | 7 kts | 176° |
| 2026-04-17 12:17 | 42.57807 | 21.03289 | 1798 ft | 12 kts | 176° |
| 2026-04-17 12:18 | 42.57733 | 21.03299 | 1798 ft | 10 kts | 176° |
| 2026-04-17 12:18 | 42.57671 | 21.03303 | 1799 ft | 8 kts | 177° |
| 2026-04-17 12:18 | 42.57620 | 21.03300 | 1799 ft | 7 kts | 194° |
| 2026-04-17 12:18 | 42.57590 | 21.03268 | 1798 ft | 8 kts | 252° |
| 2026-04-17 12:19 | 42.57577 | 21.03211 | 1797 ft | 4 kts | 210° |
| 2026-04-17 12:19 | 42.57536 | 21.03207 | 1796 ft | 9 kts | 180° |
| 2026-04-17 12:19 | 42.57485 | 21.03194 | 1800 ft | 6 kts | 237° |
| 2026-04-17 12:19 | 42.57485 | 21.03143 | 1800 ft | 5 kts | 270° |
| 2026-04-17 12:20 | 42.57485 | 21.03105 | 1800 ft | 3 kts | 270° |
| 2026-04-17 12:20 | 42.57485 | 21.03092 | 1800 ft | 0 kts | 271° |
| 2026-04-17 12:20 | 42.57485 | 21.03091 | 1800 ft | 0 kts | 271° |